createdAt,value
2022-09-06T00:02:09.482Z,4.27
2022-09-06T00:04:37.378Z,4.35
2022-09-06T00:07:05.507Z,4.55
2022-09-06T00:09:34.689Z,3.45
2022-09-06T00:12:02.505Z,5.07
2022-09-06T00:14:30.371Z,3.50
2022-09-06T00:16:58.149Z,3.20
2022-09-06T00:19:25.913Z,3.90
2022-09-06T00:21:53.733Z,4.87
2022-09-06T00:24:21.572Z,3.30
2022-09-06T00:26:50.716Z,4.43
2022-09-06T00:29:18.513Z,4.03
2022-09-06T00:31:46.282Z,5.53
2022-09-06T00:34:14.082Z,5.15
2022-09-06T00:36:41.889Z,4.10
2022-09-06T00:39:09.781Z,4.25
2022-09-06T00:41:37.610Z,4.47
2022-09-06T00:44:06.857Z,3.20
2022-09-06T00:46:35.252Z,4.03
2022-09-06T00:49:04.794Z,2.67
2022-09-06T00:51:33.948Z,4.83
2022-09-06T00:54:03.934Z,4.30
2022-09-06T00:56:32.530Z,3.75
2022-09-06T00:59:01.475Z,3.40
2022-09-06T01:01:30.870Z,2.80
2022-09-06T01:03:58.887Z,4.20
2022-09-06T01:06:31.538Z,3.58
2022-09-06T01:09:04.573Z,3.28
2022-09-06T01:11:47.941Z,4.10
2022-09-06T01:14:23.398Z,3.50
2022-09-06T01:17:01.453Z,3.45
2022-09-06T01:19:56.673Z,3.17
2022-09-06T01:22:40.872Z,3.67
2022-09-06T01:25:31.677Z,4.25
2022-09-06T01:28:24.071Z,2.88
2022-09-06T01:30:55.284Z,2.83
2022-09-06T01:33:33.277Z,2.70
2022-09-06T01:36:03.252Z,3.67
2022-09-06T01:38:31.190Z,5.47
2022-09-06T01:40:58.995Z,4.43
2022-09-06T01:43:32.340Z,3.97
2022-09-06T01:46:04.585Z,3.78
2022-09-06T01:48:41.470Z,4.40
2022-09-06T01:51:16.976Z,2.70
2022-09-06T01:54:05.527Z,3.10
2022-09-06T01:56:39.019Z,2.92
2022-09-06T01:59:31.907Z,4.70
2022-09-06T02:02:09.470Z,4.43
2022-09-06T02:04:42.941Z,5.57
2022-09-06T02:07:16.716Z,2.85
2022-09-06T02:09:46.973Z,2.45
2022-09-06T02:12:15.615Z,3.60
2022-09-06T02:14:48.151Z,3.20
2022-09-06T02:17:18.862Z,3.83
2022-09-06T02:19:49.897Z,2.40
2022-09-06T02:22:20.836Z,5.00
2022-09-06T02:24:51.808Z,3.97
2022-09-06T02:27:19.724Z,2.70
2022-09-06T02:29:49.158Z,4.00
2022-09-06T02:32:19.979Z,3.65
2022-09-06T02:34:48.094Z,2.50
2022-09-06T02:37:17.365Z,5.70
2022-09-06T02:39:45.584Z,4.07
2022-09-06T02:42:15.861Z,2.80
2022-09-06T02:44:43.743Z,4.78
2022-09-06T02:47:13.002Z,2.60
2022-09-06T02:49:40.944Z,2.30
2022-09-06T02:52:08.798Z,2.92
2022-09-06T02:54:36.631Z,2.35
2022-09-06T02:57:04.839Z,4.60
2022-09-06T02:59:32.853Z,4.32
2022-09-06T03:02:01.100Z,3.40
2022-09-06T03:04:31.604Z,4.03
2022-09-06T03:06:59.516Z,4.10
2022-09-06T03:09:27.424Z,3.00
2022-09-06T03:11:55.327Z,3.15
2022-09-06T03:14:23.213Z,4.93
2022-09-06T03:16:51.044Z,4.57
2022-09-06T03:19:20.136Z,4.22
2022-09-06T03:21:49.426Z,4.70
2022-09-06T03:24:17.273Z,6.20
2022-09-06T03:26:45.446Z,4.00
2022-09-06T03:29:13.398Z,4.82
2022-09-06T03:31:41.228Z,6.80
2022-09-06T03:34:11.131Z,6.00
2022-09-06T03:36:39.176Z,5.45
2022-09-06T03:39:08.431Z,4.50
2022-09-06T03:41:36.291Z,5.35
2022-09-06T03:44:04.340Z,5.22
2022-09-06T03:46:32.233Z,7.05
2022-09-06T03:49:01.878Z,5.27
2022-09-06T03:51:29.719Z,4.82
2022-09-06T03:53:57.746Z,4.78
2022-09-06T03:56:26.951Z,6.35
2022-09-06T03:58:55.198Z,6.50
2022-09-06T04:01:23.178Z,5.45
2022-09-06T04:03:51.128Z,6.38
2022-09-06T04:06:19.226Z,6.95
2022-09-06T04:08:47.074Z,4.93
2022-09-06T04:11:16.696Z,7.13
2022-09-06T04:13:46.731Z,5.13
2022-09-06T04:16:14.666Z,5.75
2022-09-06T04:18:42.630Z,4.57
2022-09-06T04:21:10.554Z,5.88
2022-09-06T04:23:40.039Z,5.45
2022-09-06T04:26:08.215Z,5.72
2022-09-06T04:28:36.071Z,4.72
2022-09-06T04:31:05.583Z,4.55
2022-09-06T04:33:35.311Z,5.82
2022-09-06T04:36:05.074Z,6.82
2022-09-06T04:38:36.938Z,6.35
2022-09-06T04:41:05.380Z,4.43
2022-09-06T04:43:33.411Z,4.13
2022-09-06T04:46:06.054Z,4.30
2022-09-06T04:48:34.039Z,4.70
2022-09-06T04:51:02.016Z,4.35
2022-09-06T04:53:29.858Z,5.37
2022-09-06T04:55:57.947Z,4.80
2022-09-06T04:58:26.311Z,4.43
2022-09-06T05:00:54.878Z,6.43
2022-09-06T05:03:24.130Z,4.60
2022-09-06T05:05:51.935Z,3.93
2022-09-06T05:08:20.057Z,4.43
2022-09-06T05:10:47.996Z,4.80
2022-09-06T05:13:15.978Z,5.03
2022-09-06T05:15:43.778Z,3.35
2022-09-06T05:18:15.975Z,5.05
2022-09-06T05:20:45.442Z,5.28
2022-09-06T05:23:13.300Z,3.28
2022-09-06T05:25:41.280Z,4.35
2022-09-06T05:28:09.091Z,11.07
2022-09-06T05:30:37.050Z,7.05
2022-09-06T05:33:04.978Z,6.82
2022-09-06T05:35:32.963Z,8.07
2022-09-06T05:38:02.342Z,6.18
2022-09-06T05:40:30.221Z,4.93
2022-09-06T05:42:58.082Z,4.50
2022-09-06T05:45:26.211Z,6.40
2022-09-06T05:47:54.195Z,5.95
2022-09-06T05:50:22.050Z,5.65
2022-09-06T05:52:49.880Z,7.35
2022-09-06T05:55:19.158Z,7.68
2022-09-06T05:57:47.266Z,9.50
2022-09-06T06:00:15.895Z,12.82
2022-09-06T06:02:43.881Z,8.23
2022-09-06T06:05:11.788Z,5.88
2022-09-06T06:07:39.678Z,5.75
2022-09-06T06:10:08.184Z,6.97
2022-09-06T06:12:37.521Z,8.13
2022-09-06T06:15:06.491Z,5.28
2022-09-06T06:17:34.364Z,5.40
2022-09-06T06:20:02.328Z,6.22
2022-09-06T06:22:30.172Z,6.15
2022-09-06T06:24:58.054Z,5.97
2022-09-06T06:27:25.858Z,8.05
2022-09-06T06:29:55.141Z,6.35
2022-09-06T06:32:22.993Z,6.90
2022-09-06T06:34:50.859Z,5.43
2022-09-06T06:37:18.703Z,6.22
2022-09-06T06:39:46.694Z,5.78
2022-09-06T06:42:16.067Z,4.22
2022-09-06T06:44:53.344Z,3.47
2022-09-06T06:47:22.547Z,5.15
2022-09-06T06:49:50.529Z,13.48
2022-09-06T06:52:18.433Z,14.93
2022-09-06T06:54:46.417Z,6.85
2022-09-06T06:57:14.349Z,5.37
2022-09-06T06:59:42.334Z,6.82
2022-09-06T07:02:10.311Z,6.38
2022-09-06T07:04:39.705Z,5.95
2022-09-06T07:12:43.491Z,6.22
2022-09-06T07:15:11.576Z,6.88
2022-09-06T07:17:39.750Z,4.57
2022-09-06T07:22:43.254Z,6.35
2022-09-06T07:25:14.384Z,3.85
2022-09-06T07:30:14.916Z,3.00
2022-09-06T07:32:42.744Z,3.70
2022-09-06T07:35:13.844Z,4.18
2022-09-06T07:37:41.850Z,4.50
2022-09-06T07:40:11.227Z,2.95
2022-09-06T07:42:39.320Z,4.47
2022-09-06T07:45:08.285Z,4.40
2022-09-06T07:53:16.747Z,3.85
2022-09-06T07:55:49.722Z,2.88
2022-09-06T07:58:17.587Z,4.53
2022-09-06T08:00:45.593Z,2.90
2022-09-06T08:03:13.567Z,3.60
2022-09-06T08:11:18.952Z,4.75
2022-09-06T08:13:50.080Z,4.32
2022-09-06T08:16:18.247Z,5.57
2022-09-06T08:18:46.226Z,4.15
2022-09-06T08:21:16.893Z,3.67
2022-09-06T08:23:47.226Z,3.75
2022-09-06T08:26:15.389Z,3.15
2022-09-06T08:28:43.419Z,5.80
2022-09-06T08:31:12.884Z,4.57
2022-09-06T08:33:41.270Z,2.60
2022-09-06T08:36:10.145Z,3.38
2022-09-06T08:38:39.513Z,3.22
2022-09-06T08:41:09.811Z,1.73
2022-09-06T08:43:38.326Z,2.93
2022-09-06T08:46:08.556Z,3.60
2022-09-06T08:48:39.712Z,2.95
2022-09-06T08:51:29.600Z,2.40
2022-09-06T08:54:01.610Z,3.63
2022-09-06T08:56:32.333Z,4.13
2022-09-06T08:59:05.577Z,3.45
2022-09-06T09:01:37.248Z,2.63
2022-09-06T09:04:07.293Z,2.05
2022-09-06T09:06:36.019Z,3.83
2022-09-06T09:09:07.949Z,2.90
2022-09-06T09:11:37.908Z,1.50
2022-09-06T09:14:07.108Z,3.47
2022-09-06T09:16:35.456Z,2.58
2022-09-06T09:19:05.727Z,2.30
2022-09-06T09:21:35.499Z,2.63
2022-09-06T09:24:06.843Z,8.70
2022-09-06T09:26:51.540Z,2.42
2022-09-06T09:29:23.944Z,3.80
2022-09-06T09:31:56.253Z,2.78
2022-09-06T09:34:33.309Z,2.20
2022-09-06T09:40:05.076Z,3.67
2022-09-06T09:42:35.192Z,1.38
2022-09-06T09:45:03.368Z,3.20
2022-09-06T09:47:33.169Z,1.65
2022-09-06T09:50:01.333Z,3.63
2022-09-06T09:52:30.988Z,1.70
2022-09-06T09:55:03.359Z,2.38
2022-09-06T09:57:46.734Z,2.27
2022-09-06T10:00:15.564Z,1.15
2022-09-06T10:02:44.097Z,1.80
2022-09-06T10:05:22.404Z,2.55
2022-09-06T10:07:52.797Z,3.92
2022-09-06T10:10:23.941Z,5.55
2022-09-06T10:13:08.048Z,2.55
2022-09-06T10:15:37.550Z,2.33
2022-09-06T10:18:05.744Z,2.10
2022-09-06T10:20:36.383Z,2.08
2022-09-06T10:23:09.814Z,2.15
2022-09-06T10:25:42.950Z,2.60
2022-09-06T10:28:29.893Z,1.42
2022-09-06T10:31:30.007Z,1.92
2022-09-06T10:34:04.981Z,4.47
2022-09-06T10:36:36.333Z,2.57
2022-09-06T10:39:09.617Z,1.65
2022-09-06T10:41:47.981Z,2.00
2022-09-06T10:44:25.995Z,2.15
2022-09-06T10:46:56.889Z,1.40
2022-09-06T10:49:24.758Z,2.05
2022-09-06T10:51:55.628Z,1.83
2022-09-06T10:54:24.961Z,1.33
2022-09-06T10:56:56.842Z,2.10
2022-09-06T10:59:37.674Z,1.98
2022-09-06T11:02:16.191Z,2.22
2022-09-06T11:07:35.281Z,1.55
2022-09-06T11:10:05.609Z,3.03
2022-09-06T11:12:38.334Z,2.30
2022-09-06T11:15:09.976Z,1.77
2022-09-06T11:17:42.580Z,1.67
2022-09-06T11:20:15.712Z,3.70
2022-09-06T11:22:52.656Z,2.83
2022-09-06T11:26:03.146Z,3.33
2022-09-06T11:28:34.953Z,2.20
2022-09-06T11:31:05.245Z,6.00
2022-09-06T11:33:35.557Z,1.88
2022-09-06T11:36:24.459Z,1.60
2022-09-06T11:38:56.675Z,3.78
2022-09-06T11:41:29.934Z,1.50
2022-09-06T11:43:58.005Z,1.75
2022-09-06T11:47:07.517Z,1.90
2022-09-06T11:49:40.030Z,1.73
2022-09-06T11:52:47.354Z,1.70
2022-09-06T11:55:19.841Z,2.60
2022-09-06T11:57:55.792Z,4.22
2022-09-06T12:00:25.150Z,1.67
2022-09-06T12:02:54.821Z,2.10
2022-09-06T12:05:27.679Z,2.30
2022-09-06T12:08:25.578Z,1.88
2022-09-06T12:11:03.066Z,1.90
2022-09-06T12:13:36.000Z,3.28
2022-09-06T12:16:04.116Z,2.03
2022-09-06T12:18:55.796Z,3.80
2022-09-06T12:21:38.289Z,2.00
2022-09-06T12:24:07.974Z,2.30
2022-09-06T12:26:55.708Z,4.00
2022-09-06T12:29:26.211Z,2.03
2022-09-06T12:31:55.217Z,2.60
2022-09-06T12:34:26.300Z,1.77
2022-09-06T12:36:59.328Z,1.38
2022-09-06T12:39:27.987Z,3.75
2022-09-06T12:41:57.704Z,2.90
2022-09-06T12:44:31.900Z,1.92
2022-09-06T12:47:04.765Z,3.60
2022-09-06T12:49:33.986Z,2.70
2022-09-06T12:52:10.532Z,3.22
2022-09-06T12:54:46.723Z,1.98
2022-09-06T12:57:18.553Z,1.83
2022-09-06T12:59:54.685Z,2.20
2022-09-06T13:02:26.994Z,2.17
2022-09-06T13:05:01.233Z,3.38
2022-09-06T13:07:31.634Z,2.10
2022-09-06T13:09:59.666Z,2.47
2022-09-06T13:12:29.651Z,3.88
2022-09-06T13:14:59.493Z,1.85
2022-09-06T13:17:28.725Z,2.53
2022-09-06T13:19:59.853Z,2.08
2022-09-06T13:22:45.350Z,2.85
2022-09-06T13:25:20.666Z,2.75
2022-09-06T13:27:50.905Z,3.90
2022-09-06T13:30:33.435Z,3.23
2022-09-06T13:33:01.877Z,3.88
2022-09-06T13:35:33.354Z,4.28
2022-09-06T13:38:20.329Z,2.70
2022-09-06T13:41:11.558Z,3.72
2022-09-06T13:43:44.996Z,3.00
2022-09-06T13:46:13.032Z,5.38
2022-09-06T13:48:41.608Z,3.67
2022-09-06T13:51:11.305Z,2.72
2022-09-06T13:53:39.070Z,2.78
2022-09-06T13:56:08.700Z,2.15
2022-09-06T13:58:36.888Z,2.22
2022-09-06T14:01:08.458Z,2.58
2022-09-06T14:03:37.690Z,3.63
2022-09-06T14:06:05.991Z,3.10
2022-09-06T14:08:56.189Z,3.30
2022-09-06T14:11:26.710Z,3.75
2022-09-06T14:13:55.070Z,3.10
2022-09-06T14:16:23.027Z,3.60
2022-09-06T14:18:51.888Z,5.30
2022-09-06T14:21:19.781Z,10.15
2022-09-06T14:23:52.183Z,3.30
2022-09-06T14:26:21.055Z,8.55
2022-09-06T14:28:48.969Z,2.08
2022-09-06T14:31:19.219Z,3.10
2022-09-06T14:33:47.238Z,4.22
2022-09-06T14:36:16.844Z,6.40
2022-09-06T14:38:46.211Z,3.30
2022-09-06T14:41:17.762Z,15.75
2022-09-06T14:43:49.805Z,3.08
2022-09-06T14:46:18.324Z,4.70
2022-09-06T14:48:47.110Z,2.88
2022-09-06T14:51:19.069Z,5.97
2022-09-06T14:53:47.114Z,2.47
2022-09-06T14:56:16.485Z,2.85
2022-09-06T14:58:44.985Z,3.78
2022-09-06T15:01:14.615Z,2.45
2022-09-06T15:03:43.404Z,2.88
2022-09-06T15:06:11.570Z,4.07
2022-09-06T15:08:39.818Z,2.40
2022-09-06T15:11:08.952Z,3.80
2022-09-06T15:13:39.064Z,2.65
2022-09-06T15:16:07.880Z,3.73
2022-09-06T15:18:35.876Z,2.00
2022-09-06T15:21:10.243Z,3.85
2022-09-06T15:23:38.703Z,5.88
2022-09-06T15:26:07.778Z,5.95
2022-09-06T15:28:35.906Z,3.30
2022-09-06T15:31:05.554Z,6.45
2022-09-06T15:33:34.770Z,3.83
2022-09-06T15:36:06.476Z,4.32
2022-09-06T15:38:34.414Z,4.00
2022-09-06T15:41:08.229Z,2.75
2022-09-06T15:43:36.967Z,3.47
2022-09-06T15:46:06.588Z,4.90
2022-09-06T15:48:41.762Z,9.75
2022-09-06T15:51:10.431Z,7.33
2022-09-06T15:53:38.805Z,4.27
2022-09-06T15:56:07.493Z,3.80
2022-09-06T15:58:35.618Z,5.53
2022-09-06T16:01:07.746Z,4.30
2022-09-06T16:03:40.509Z,2.88
2022-09-06T16:06:26.551Z,4.65
2022-09-06T16:08:59.365Z,5.13
2022-09-06T16:11:27.985Z,3.67
2022-09-06T16:13:56.192Z,4.53
2022-09-06T16:16:26.051Z,4.43
2022-09-06T16:18:54.028Z,2.83
2022-09-06T16:21:23.986Z,4.63
2022-09-06T16:23:53.661Z,5.78
2022-09-06T16:26:22.332Z,4.03
2022-09-06T16:28:51.314Z,3.28
2022-09-06T16:31:20.396Z,5.47
2022-09-06T16:33:49.882Z,4.68
2022-09-06T16:36:18.644Z,4.90
2022-09-06T16:38:46.882Z,3.23
2022-09-06T16:41:17.458Z,4.15
2022-09-06T16:43:45.880Z,4.72
2022-09-06T16:46:14.100Z,4.72
2022-09-06T16:48:42.378Z,6.22
2022-09-06T16:51:13.874Z,4.43
2022-09-06T16:53:44.720Z,5.57
2022-09-06T16:56:14.600Z,5.68
2022-09-06T16:58:43.532Z,11.18
2022-09-06T17:01:11.883Z,5.78
2022-09-06T17:03:40.702Z,5.10
2022-09-06T17:06:09.424Z,5.47
2022-09-06T17:08:39.260Z,5.88
2022-09-06T17:11:09.411Z,12.90
2022-09-06T17:13:38.214Z,8.82
2022-09-06T17:16:24.181Z,8.38
2022-09-06T17:18:53.664Z,6.32
2022-09-06T17:21:22.168Z,7.30
2022-09-06T17:23:51.572Z,4.20
2022-09-06T17:26:21.116Z,6.40
2022-09-06T17:28:49.603Z,6.18
2022-09-06T17:31:22.260Z,5.28
2022-09-06T17:33:53.468Z,6.75
2022-09-06T17:36:23.473Z,7.95
2022-09-06T17:38:53.976Z,6.30
2022-09-06T17:41:24.171Z,7.90
2022-09-06T17:43:53.704Z,6.37
2022-09-06T17:46:25.270Z,6.10
2022-09-06T17:48:55.941Z,5.40
2022-09-06T17:51:24.333Z,6.68
2022-09-06T17:53:53.974Z,6.05
2022-09-06T17:56:22.069Z,13.70
2022-09-06T17:58:55.250Z,12.60
2022-09-06T18:01:24.184Z,11.23
2022-09-06T18:03:52.511Z,11.32
2022-09-06T18:06:22.779Z,8.33
2022-09-06T18:08:53.882Z,7.18
2022-09-06T18:11:24.252Z,6.72
2022-09-06T18:13:55.902Z,5.40
2022-09-06T18:16:23.738Z,6.68
2022-09-06T18:18:52.849Z,5.53
2022-09-06T18:21:21.456Z,7.30
2022-09-06T18:23:49.324Z,6.63
2022-09-06T18:26:18.824Z,7.97
2022-09-06T18:28:46.625Z,5.60
2022-09-06T18:31:15.912Z,6.47
2022-09-06T18:33:44.133Z,7.70
2022-09-06T18:36:13.177Z,11.27
2022-09-06T18:38:42.730Z,10.75
2022-09-06T18:41:32.126Z,9.70
2022-09-06T18:44:02.487Z,7.88
2022-09-06T18:46:31.222Z,9.68
2022-09-06T18:48:59.191Z,7.40
2022-09-06T18:51:27.148Z,8.88
2022-09-06T18:53:56.780Z,8.98
2022-09-06T18:56:24.908Z,6.93
2022-09-06T18:58:55.738Z,10.37
2022-09-06T19:01:25.171Z,9.43
2022-09-06T19:03:53.126Z,7.88
2022-09-06T19:06:22.342Z,9.60
2022-09-06T19:08:51.997Z,11.07
2022-09-06T19:11:21.244Z,8.20
2022-09-06T19:13:51.821Z,9.43
2022-09-06T19:16:20.274Z,8.70
2022-09-06T19:18:49.596Z,7.95
2022-09-06T19:21:19.040Z,9.07
2022-09-06T19:23:47.975Z,9.20
2022-09-06T19:26:17.974Z,10.23
2022-09-06T19:28:49.501Z,8.30
2022-09-06T19:31:18.516Z,6.72
2022-09-06T19:33:48.045Z,8.90
2022-09-06T19:36:17.921Z,9.32
2022-09-06T19:39:02.976Z,9.02
2022-09-06T19:41:32.660Z,8.20
2022-09-06T19:44:01.681Z,9.73
2022-09-06T19:46:29.923Z,14.23
2022-09-06T19:48:58.216Z,14.18
2022-09-06T19:51:27.670Z,10.65
2022-09-06T19:53:57.584Z,8.80
2022-09-06T19:56:27.144Z,6.80
2022-09-06T19:58:56.440Z,8.40
2022-09-06T20:01:25.178Z,6.95
2022-09-06T20:03:53.519Z,6.90
2022-09-06T20:06:22.396Z,8.13
2022-09-06T20:08:53.041Z,7.77
2022-09-06T20:11:23.126Z,8.65
2022-09-06T20:13:51.259Z,8.27
2022-09-06T20:16:20.923Z,9.07
2022-09-06T20:18:49.395Z,11.17
2022-09-06T20:21:18.522Z,8.13
2022-09-06T20:23:51.459Z,7.82
2022-09-06T20:26:20.242Z,7.18
2022-09-06T20:28:48.819Z,7.90
2022-09-06T20:31:18.721Z,6.20
2022-09-06T20:33:49.649Z,4.65
2022-09-06T20:36:18.460Z,7.15
2022-09-06T20:38:47.826Z,7.72
2022-09-06T20:41:18.356Z,7.35
2022-09-06T20:43:46.581Z,7.68
2022-09-06T20:46:19.416Z,7.53
2022-09-06T20:48:48.017Z,7.28
2022-09-06T20:51:18.796Z,7.60
2022-09-06T20:53:47.952Z,6.60
2022-09-06T20:56:18.547Z,9.63
2022-09-06T20:58:49.869Z,8.55
2022-09-06T21:01:22.547Z,8.57
2022-09-06T21:03:52.592Z,8.02
2022-09-06T21:06:21.553Z,9.07
2022-09-06T21:08:49.773Z,7.75
2022-09-06T21:11:19.362Z,5.93
2022-09-06T21:13:49.678Z,7.00
2022-09-06T21:16:21.965Z,9.60
2022-09-06T21:18:52.726Z,9.02
2022-09-06T21:21:21.509Z,7.18
2022-09-06T21:23:49.553Z,8.10
2022-09-06T21:26:19.112Z,7.38
2022-09-06T21:28:47.898Z,8.25
2022-09-06T21:31:17.959Z,8.18
2022-09-06T21:33:47.334Z,6.70
2022-09-06T21:36:16.501Z,7.22
2022-09-06T21:38:45.654Z,8.23
2022-09-06T21:41:14.600Z,7.07
2022-09-06T21:43:44.476Z,6.78
2022-09-06T21:46:14.019Z,7.03
2022-09-06T21:48:43.788Z,7.95
2022-09-06T21:51:14.166Z,7.70
2022-09-06T21:53:42.786Z,6.53
2022-09-06T21:56:10.720Z,3.47
2022-09-06T21:58:38.862Z,4.03
2022-09-06T22:01:08.377Z,4.50
2022-09-06T22:03:39.056Z,4.75
2022-09-06T22:06:10.158Z,3.67
2022-09-06T22:08:38.320Z,2.80
2022-09-06T22:11:10.766Z,2.73
2022-09-06T22:13:38.690Z,3.07
2022-09-06T22:16:09.518Z,2.45
2022-09-06T22:18:37.692Z,4.15
2022-09-06T22:21:07.430Z,3.30
2022-09-06T22:23:35.905Z,2.92
2022-09-06T22:26:05.385Z,3.20
2022-09-06T22:28:33.747Z,2.55
2022-09-06T22:31:02.069Z,3.55
2022-09-06T22:33:31.716Z,3.22
2022-09-06T22:36:00.456Z,2.92
2022-09-06T22:38:28.912Z,2.60
2022-09-06T22:40:57.224Z,2.80
2022-09-06T22:43:25.345Z,2.60
2022-09-06T22:45:53.274Z,3.33
2022-09-06T22:48:21.181Z,3.10
2022-09-06T22:50:50.455Z,3.58
2022-09-06T22:53:19.013Z,2.72
2022-09-06T22:55:48.243Z,10.55
2022-09-06T22:58:16.089Z,3.35
2022-09-06T23:00:43.992Z,7.38
2022-09-06T23:03:11.890Z,3.13
2022-09-06T23:05:39.773Z,2.95
2022-09-06T23:08:08.986Z,2.25
2022-09-06T23:10:40.866Z,5.38
2022-09-06T23:13:08.885Z,4.13
2022-09-06T23:15:36.893Z,2.22
2022-09-06T23:18:05.292Z,2.55
2022-09-06T23:20:33.169Z,4.40
2022-09-06T23:23:01.006Z,3.53
2022-09-06T23:25:30.225Z,1.60
2022-09-06T23:27:59.275Z,2.80
2022-09-06T23:30:27.160Z,2.85
2022-09-06T23:32:56.382Z,3.47
2022-09-06T23:35:24.432Z,2.70
2022-09-06T23:37:53.814Z,2.50
2022-09-06T23:40:21.804Z,3.50
2022-09-06T23:42:51.072Z,3.83
2022-09-06T23:45:18.930Z,3.42
2022-09-06T23:47:46.905Z,2.33
2022-09-06T23:50:15.241Z,3.42
2022-09-06T23:52:43.290Z,2.70
2022-09-06T23:55:11.385Z,3.80
2022-09-06T23:57:39.266Z,2.25
